Time;durP1;ratioP1;P1;durP2;ratioP2;P2;SDS_P1;SDS_P2;PMS_P1;PMS_P2;Temp;Humidity;BMP_temperature;BMP_pressure;BME280_temperature;BME280_humidity;BME280_pressure;Samples;Min_cycle;Max_cycle;Signal;HPM_P1;HPM_P2
2023/06/06 00:00:41;;;;;;;9.87;5.23;;;;;;;-145.69;100.00;52127.53;5073886;28;20195;-79
2023/06/06 00:03:07;;;;;;;6.90;3.80;;;;;;;-145.69;100.00;52131.50;5073874;28;20195;-79
2023/06/06 00:05:35;;;;;;;7.68;4.32;;;;;;;-145.69;100.00;52087.94;5073463;28;20199;-78
2023/06/06 00:08:01;;;;;;;5.55;4.15;;;;;;;-145.69;100.00;52095.84;5073781;28;20607;-78
2023/06/06 00:10:28;;;;;;;6.75;4.70;;;;;;;-145.69;100.00;52119.63;5073618;28;20203;-79
2023/06/06 00:12:55;;;;;;;7.05;4.10;;;;;;;-145.69;100.00;52131.50;5073512;28;20535;-79
2023/06/06 00:15:21;;;;;;;7.27;4.43;;;;;;;-145.69;100.00;52080.00;5074115;28;20202;-78
2023/06/06 00:17:53;;;;;;;6.18;4.00;;;;;;;-145.69;100.00;52123.56;5072458;28;20251;-77
2023/06/06 00:20:19;;;;;;;6.47;4.10;;;;;;;-145.69;100.00;52103.78;5073404;28;20649;-79
2023/06/06 00:22:48;;;;;;;7.05;4.05;;;;;;;-145.69;100.00;52085.94;5073156;28;20646;-78
2023/06/06 00:25:15;;;;;;;7.22;4.07;;;;;;;-145.69;100.00;52105.75;5073167;28;20199;-78
2023/06/06 00:27:41;;;;;;;5.30;3.47;;;;;;;-145.69;100.00;52091.88;5072589;28;20234;-78
2023/06/06 00:30:09;;;;;;;6.35;3.30;;;;;;;-145.69;100.00;52085.94;5073489;28;20203;-78
2023/06/06 00:32:36;;;;;;;5.57;3.80;;;;;;;-145.69;100.00;52129.50;5073158;28;20272;-78
2023/06/06 00:35:02;;;;;;;6.00;3.60;;;;;;;-145.69;100.00;52117.63;5073100;28;20215;-78
2023/06/06 00:37:29;;;;;;;4.63;3.63;;;;;;;-145.69;100.00;52078.03;5073153;28;20256;-78
2023/06/06 00:39:57;;;;;;;8.05;4.13;;;;;;;-145.69;100.00;52095.84;5073379;28;20230;-78
2023/06/06 00:42:23;;;;;;;7.90;4.10;;;;;;;-145.69;100.00;52101.78;5072563;28;20543;-78
2023/06/06 00:44:50;;;;;;;6.05;3.55;;;;;;;-145.69;100.00;52103.78;5073104;28;20264;-78
2023/06/06 00:47:17;;;;;;;7.07;3.93;;;;;;;-145.69;100.00;52127.53;5072468;28;20233;-78
2023/06/06 00:49:47;;;;;;;9.17;4.23;;;;;;;-145.69;100.00;52127.53;5073177;28;20202;-78
2023/06/06 00:52:14;;;;;;;5.03;3.80;;;;;;;-145.69;100.00;52157.25;5072888;28;20241;-78
2023/06/06 00:54:43;;;;;;;6.20;4.03;;;;;;;-145.69;100.00;52135.47;5072651;28;20531;-78
2023/06/06 00:57:11;;;;;;;5.13;3.63;;;;;;;-145.69;100.00;52131.50;5073137;28;20203;-79
2023/06/06 00:59:39;;;;;;;5.03;3.30;;;;;;;-145.69;100.00;52127.53;5073194;28;20199;-79
2023/06/06 01:02:09;;;;;;;4.80;3.60;;;;;;;-145.69;100.00;52117.63;5072716;28;20203;-79
2023/06/06 01:04:39;;;;;;;5.37;3.53;;;;;;;-145.69;100.00;52123.56;5063119;28;20650;-79
2023/06/06 01:07:07;;;;;;;5.22;3.90;;;;;;;-145.69;100.00;52141.41;5092554;28;20459;-79
2023/06/06 01:09:34;;;;;;;10.77;3.87;;;;;;;-145.69;100.00;52143.38;5093146;28;20663;-80
2023/06/06 01:12:09;;;;;;;5.87;4.03;;;;;;;-145.69;100.00;52143.38;5093027;28;20656;-79
2023/06/06 01:14:45;;;;;;;6.87;4.17;;;;;;;-145.69;100.00;52127.53;5062616;28;20239;-79
2023/06/06 01:17:12;;;;;;;5.80;4.00;;;;;;;-145.69;100.00;52133.47;5064399;28;20649;-79
2023/06/06 01:19:41;;;;;;;6.67;4.70;;;;;;;-145.69;100.00;52153.28;5072499;28;20199;-78
2023/06/06 01:22:13;;;;;;;6.90;4.23;;;;;;;-145.69;100.00;52109.72;5072894;28;20286;-79
2023/06/06 01:24:44;;;;;;;6.73;4.10;;;;;;;-145.69;100.00;52131.50;5072417;28;20281;-79
2023/06/06 01:27:10;;;;;;;6.20;4.43;;;;;;;-145.69;100.00;52157.25;5072123;28;20586;-80
2023/06/06 01:29:37;;;;;;;5.03;3.90;;;;;;;-145.69;100.00;52153.28;5072546;28;20248;-79
2023/06/06 01:32:12;;;;;;;6.27;4.23;;;;;;;-145.69;100.00;52163.19;5072120;28;20202;-80
2023/06/06 01:35:14;;;;;;;6.03;4.30;;;;;;;-145.69;100.00;52153.28;5066754;28;20310;-78
2023/06/06 01:37:48;;;;;;;11.97;4.40;;;;;;;-145.69;100.00;52157.25;5053228;28;20269;-79
2023/06/06 01:40:18;;;;;;;5.83;4.30;;;;;;;-145.69;100.00;52137.44;5056708;28;20539;-78
2023/06/06 01:42:47;;;;;;;4.70;3.70;;;;;;;-145.69;100.00;52141.41;5056264;28;20203;-79
2023/06/06 01:45:17;;;;;;;5.47;3.87;;;;;;;-145.69;100.00;52163.19;5059681;28;20204;-78
2023/06/06 01:47:44;;;;;;;9.20;3.83;;;;;;;-145.69;100.00;52190.91;5056087;28;20235;-79
2023/06/06 01:50:12;;;;;;;5.00;3.83;;;;;;;-145.69;100.00;52167.13;5056592;28;20200;-78
2023/06/06 01:52:38;;;;;;;6.20;4.00;;;;;;;-145.69;100.00;52181.00;5055011;28;20286;-79
2023/06/06 01:55:08;;;;;;;5.40;3.80;;;;;;;-145.69;100.00;52167.13;5064145;28;20240;-78
2023/06/06 01:57:35;;;;;;;7.37;4.30;;;;;;;-145.69;100.00;52147.34;5075954;28;20203;-79
2023/06/06 02:00:04;;;;;;;6.67;4.47;;;;;;;-145.69;100.00;52155.25;5076109;28;20198;-79
2023/06/06 02:02:30;;;;;;;7.50;4.10;;;;;;;-145.69;100.00;52173.09;5075751;28;20237;-78
2023/06/06 02:04:56;;;;;;;6.17;4.47;;;;;;;-145.69;100.00;52157.25;5075819;28;20668;-79
2023/06/06 02:07:24;;;;;;;8.57;4.63;;;;;;;-145.69;100.00;52179.03;5076096;28;20230;-79
2023/06/06 02:09:51;;;;;;;7.83;4.90;;;;;;;-145.69;100.00;52165.16;5076236;28;20289;-78
2023/06/06 02:12:19;;;;;;;7.37;5.03;;;;;;;-145.69;100.00;52127.53;5076064;28;20260;-78
2023/06/06 02:14:46;;;;;;;7.60;4.50;;;;;;;-145.69;100.00;52175.06;5075637;28;20199;-79
2023/06/06 02:17:13;;;;;;;7.20;4.57;;;;;;;-145.69;100.00;52155.25;5075811;28;20264;-79
2023/06/06 02:19:39;;;;;;;7.47;4.40;;;;;;;-145.69;100.00;52155.25;5075780;28;20444;-78
2023/06/06 02:22:06;;;;;;;6.17;4.47;;;;;;;-145.69;100.00;52155.25;5075898;28;20206;-78
2023/06/06 02:24:33;;;;;;;6.17;4.23;;;;;;;-145.69;100.00;52175.06;5075505;28;20202;-78
2023/06/06 02:27:01;;;;;;;7.50;3.93;;;;;;;-145.69;100.00;52175.06;5075457;28;20321;-79
2023/06/06 02:29:29;;;;;;;7.27;4.07;;;;;;;-145.69;100.00;52163.19;5075434;28;20562;-78
2023/06/06 02:31:56;;;;;;;6.97;3.97;;;;;;;-145.69;100.00;52171.09;5075359;28;20207;-78
2023/06/06 02:34:24;;;;;;;5.93;3.97;;;;;;;-145.69;100.00;52196.84;5074651;28;20503;-79
2023/06/06 02:36:51;;;;;;;8.00;4.43;;;;;;;-145.69;100.00;52157.25;5075420;28;20290;-79
2023/06/06 02:39:17;;;;;;;6.47;4.10;;;;;;;-145.69;100.00;52163.19;5075505;28;20203;-78
2023/06/06 02:41:44;;;;;;;6.87;4.00;;;;;;;-145.69;100.00;52171.09;5075452;28;20244;-79
2023/06/06 02:44:10;;;;;;;5.90;3.90;;;;;;;-145.69;100.00;52196.84;5075293;28;20256;-78
2023/06/06 02:46:38;;;;;;;5.57;3.80;;;;;;;-145.69;100.00;52169.13;5075251;28;20555;-80
2023/06/06 02:49:05;;;;;;;8.67;4.07;;;;;;;-145.69;100.00;52165.16;5074867;28;20203;-79
2023/06/06 02:51:31;;;;;;;6.23;4.40;;;;;;;-145.69;100.00;52159.22;5075142;28;20222;-79
2023/06/06 02:53:58;;;;;;;6.73;4.13;;;;;;;-145.69;100.00;52153.28;5075254;28;20199;-79
2023/06/06 02:56:25;;;;;;;5.27;3.50;;;;;;;-145.69;100.00;52186.94;5074875;28;20723;-78
2023/06/06 02:58:52;;;;;;;6.23;4.03;;;;;;;-145.69;100.00;52157.25;5074741;28;20658;-79
2023/06/06 03:01:20;;;;;;;7.00;3.70;;;;;;;-145.69;100.00;52159.22;5075167;28;20227;-78
2023/06/06 03:03:48;;;;;;;4.10;3.27;;;;;;;-145.69;100.00;52163.19;5074848;28;20226;-78
2023/06/06 03:06:16;;;;;;;5.30;3.80;;;;;;;-145.69;100.00;52186.94;5074839;28;20199;-78
2023/06/06 03:08:43;;;;;;;5.00;3.47;;;;;;;-145.69;100.00;52204.75;5075020;28;20290;-79
2023/06/06 03:11:10;;;;;;;8.53;3.50;;;;;;;-145.69;100.00;52159.22;5074742;28;20225;-79
2023/06/06 03:13:36;;;;;;;5.60;3.93;;;;;;;-145.69;100.00;52188.91;5074917;28;20252;-78
2023/06/06 03:16:04;;;;;;;6.30;3.87;;;;;;;-145.69;100.00;52167.13;5074977;28;20202;-78
2023/06/06 03:18:30;;;;;;;7.57;3.80;;;;;;;-145.69;100.00;52151.28;5074883;28;20214;-79
2023/06/06 03:20:58;;;;;;;5.40;3.70;;;;;;;-145.69;100.00;52159.22;5074918;28;20207;-78
2023/06/06 03:23:25;;;;;;;5.47;3.90;;;;;;;-145.69;100.00;52163.19;5074658;28;20202;-79
2023/06/06 03:25:51;;;;;;;7.17;4.07;;;;;;;-145.69;100.00;52161.19;5074190;28;20252;-78
2023/06/06 03:28:20;;;;;;;6.17;3.57;;;;;;;-145.69;100.00;52137.44;5074662;28;20226;-78
2023/06/06 03:30:47;;;;;;;6.13;3.70;;;;;;;-145.69;100.00;52151.28;5074473;28;20203;-78
2023/06/06 03:33:13;;;;;;;4.47;3.50;;;;;;;-145.69;100.00;52181.00;5074229;28;20650;-79
2023/06/06 03:35:40;;;;;;;5.90;3.33;;;;;;;-145.69;100.00;52155.25;5073835;28;20199;-79
2023/06/06 03:38:08;;;;;;;4.77;3.53;;;;;;;-145.69;100.00;52167.13;5072908;28;20287;-78
2023/06/06 03:40:35;;;;;;;5.70;3.40;;;;;;;-145.69;100.00;52167.13;5068509;28;20203;-78
2023/06/06 03:43:01;;;;;;;4.67;3.17;;;;;;;-145.69;100.00;52184.97;5054445;28;20245;-79
2023/06/06 03:45:27;;;;;;;5.67;3.30;;;;;;;-145.69;100.00;52159.22;5054377;28;20199;-79
2023/06/06 03:47:55;;;;;;;5.27;3.50;;;;;;;-145.69;100.00;52188.91;5053996;28;20239;-79
2023/06/06 03:50:21;;;;;;;5.90;2.93;;;;;;;-145.69;100.00;52157.25;5053993;28;20199;-79
2023/06/06 03:52:48;;;;;;;5.83;3.40;;;;;;;-145.69;100.00;52155.25;5053820;28;20654;-78
2023/06/06 03:55:16;;;;;;;5.87;3.53;;;;;;;-145.69;100.00;52163.19;5071765;28;20198;-78
2023/06/06 03:57:42;;;;;;;4.73;3.30;;;;;;;-145.69;100.00;52177.03;5074022;28;20202;-79
2023/06/06 04:00:11;;;;;;;4.37;2.93;;;;;;;-145.69;100.00;52190.91;5073875;28;20780;-79
2023/06/06 04:02:37;;;;;;;7.23;2.93;;;;;;;-145.69;100.00;52184.97;5073207;28;20203;-78
2023/06/06 04:05:04;;;;;;;4.67;3.30;;;;;;;-145.69;100.00;52159.22;5073156;28;20600;-78
2023/06/06 04:07:31;;;;;;;3.87;2.63;;;;;;;-145.69;100.00;52171.09;5073403;28;20233;-79
2023/06/06 04:09:58;;;;;;;3.90;3.00;;;;;;;-145.69;100.00;52151.28;5073824;28;20206;-78
2023/06/06 04:12:26;;;;;;;6.87;3.17;;;;;;;-145.69;100.00;52165.16;5073939;28;20209;-79
2023/06/06 04:14:52;;;;;;;7.17;3.13;;;;;;;-145.69;100.00;52175.06;5073898;28;20238;-79
2023/06/06 04:17:19;;;;;;;5.27;3.03;;;;;;;-145.69;100.00;52165.16;5074594;28;20244;-78
2023/06/06 04:19:47;;;;;;;4.30;2.60;;;;;;;-145.69;100.00;52171.09;5073371;28;20384;-78
2023/06/06 04:22:14;;;;;;;4.60;2.93;;;;;;;-145.69;100.00;52167.13;5073428;28;20597;-78
2023/06/06 04:24:40;;;;;;;3.50;2.53;;;;;;;-145.69;100.00;52171.09;5073557;28;20199;-79
2023/06/06 04:27:07;;;;;;;5.17;3.40;;;;;;;-145.69;100.00;52182.97;5072214;28;20214;-80
2023/06/06 04:29:35;;;;;;;3.20;2.80;;;;;;;-145.69;100.00;52194.88;5073675;28;20206;-79
2023/06/06 04:32:01;;;;;;;4.33;2.73;;;;;;;-145.69;100.00;52171.09;5073504;28;20205;-78
2023/06/06 04:34:29;;;;;;;5.53;3.00;;;;;;;-145.69;100.00;52153.28;5073453;28;20202;-78
2023/06/06 04:36:56;;;;;;;4.07;2.83;;;;;;;-145.69;100.00;52165.16;5073579;28;20209;-79
2023/06/06 04:39:24;;;;;;;4.20;3.00;;;;;;;-145.69;100.00;52159.22;5073369;28;20203;-79
2023/06/06 04:41:50;;;;;;;4.67;2.90;;;;;;;-145.69;100.00;52196.84;5072853;28;20248;-78
2023/06/06 04:44:17;;;;;;;4.20;2.83;;;;;;;-145.69;100.00;52139.41;5073239;28;20201;-79
2023/06/06 04:46:45;;;;;;;3.53;2.80;;;;;;;-145.69;100.00;52139.41;5073093;28;20199;-79
2023/06/06 04:49:12;;;;;;;4.07;2.60;;;;;;;-145.69;100.00;52194.88;5072687;28;20230;-79
2023/06/06 04:51:44;;;;;;;4.30;2.90;;;;;;;-145.69;100.00;52151.28;5073007;28;20662;-79
2023/06/06 04:54:10;;;;;;;3.37;2.60;;;;;;;-145.69;100.00;52155.25;5073315;28;20663;-78
2023/06/06 04:56:38;;;;;;;11.37;2.63;;;;;;;-145.69;100.00;52186.94;5072475;28;20248;-79
2023/06/06 04:59:06;;;;;;;8.53;2.70;;;;;;;-145.69;100.00;52167.13;5072858;28;20202;-78
2023/06/06 05:01:34;;;;;;;4.43;2.50;;;;;;;-145.69;100.00;52167.13;5072781;28;20601;-79
2023/06/06 05:04:02;;;;;;;5.57;2.70;;;;;;;-145.69;100.00;52145.34;5072920;28;20203;-78
2023/06/06 05:06:28;;;;;;;4.87;2.97;;;;;;;-145.69;100.00;52159.22;5072643;28;20252;-79
2023/06/06 05:08:55;;;;;;;4.00;3.10;;;;;;;-145.69;100.00;52161.19;5072770;28;20373;-78
2023/06/06 05:11:21;;;;;;;6.37;3.10;;;;;;;-145.69;100.00;52179.03;5072945;28;20207;-79
2023/06/06 05:13:48;;;;;;;3.37;2.80;;;;;;;-145.69;100.00;52143.38;5072472;28;20245;-79
2023/06/06 05:16:14;;;;;;;4.30;3.03;;;;;;;-145.69;100.00;52117.63;5071328;28;20223;-79
2023/06/06 05:18:41;;;;;;;4.10;2.90;;;;;;;-145.69;100.00;52151.28;5072613;28;20222;-79
2023/06/06 05:21:09;;;;;;;4.17;3.03;;;;;;;-145.69;100.00;52165.16;5072894;28;20256;-79
2023/06/06 05:23:36;;;;;;;4.00;3.07;;;;;;;-145.69;100.00;52121.59;5072741;28;20199;-80
2023/06/06 05:26:02;;;;;;;3.60;2.40;;;;;;;-145.69;100.00;52153.28;5072355;28;20198;-79
2023/06/06 05:28:29;;;;;;;4.10;2.67;;;;;;;-145.69;100.00;52133.47;5072593;28;20230;-79
2023/06/06 05:30:56;;;;;;;5.67;3.10;;;;;;;-145.69;100.00;52141.41;5072679;28;20565;-79
2023/06/06 05:33:25;;;;;;;6.97;2.90;;;;;;;-145.69;100.00;52129.50;5072816;28;20195;-79
2023/06/06 05:35:52;;;;;;;7.88;2.55;;;;;;;-145.69;100.00;52143.38;5072448;28;20227;-79
2023/06/06 05:38:20;;;;;;;4.90;2.77;;;;;;;-145.69;100.00;52141.41;5072642;28;20210;-79
2023/06/06 05:40:46;;;;;;;3.67;2.65;;;;;;;-145.69;100.00;52155.25;5072647;28;20280;-80
2023/06/06 05:43:14;;;;;;;6.00;2.80;;;;;;;-145.69;100.00;52133.47;5072558;28;20210;-79
2023/06/06 05:45:41;;;;;;;4.45;2.70;;;;;;;-145.69;100.00;52163.19;5071607;28;20298;-79
2023/06/06 05:48:08;;;;;;;3.22;2.50;;;;;;;-145.69;100.00;52119.63;5063071;28;20771;-80
2023/06/06 05:50:35;;;;;;;3.30;2.70;;;;;;;-145.69;100.00;52111.69;5052606;28;20257;-80
2023/06/06 05:53:02;;;;;;;4.07;2.35;;;;;;;-145.69;100.00;52131.50;5052500;28;20222;-79
2023/06/06 05:55:32;;;;;;;5.05;2.28;;;;;;;-145.69;100.00;52117.63;5062067;28;20281;-79
2023/06/06 05:57:59;;;;;;;3.85;2.10;;;;;;;-145.69;100.00;52127.53;5072242;28;20260;-79
2023/06/06 06:00:26;;;;;;;6.22;2.00;;;;;;;-145.69;100.00;52113.66;5072205;28;20209;-79
2023/06/06 06:02:55;;;;;;;3.15;2.17;;;;;;;-145.69;100.00;52111.69;5071797;28;20199;-79
2023/06/06 06:05:22;;;;;;;5.15;2.10;;;;;;;-145.69;100.00;52091.88;5072218;28;20680;-79
2023/06/06 06:07:49;;;;;;;3.95;2.25;;;;;;;-145.69;100.00;52117.63;5072197;28;20252;-79
2023/06/06 06:10:16;;;;;;;4.18;2.00;;;;;;;-145.69;100.00;52129.50;5071949;28;20210;-79
2023/06/06 06:12:44;;;;;;;4.20;2.38;;;;;;;-145.69;100.00;52129.50;5072469;28;20267;-80
2023/06/06 06:15:12;;;;;;;2.20;1.90;;;;;;;-145.69;100.00;52107.72;5071858;28;20611;-80
2023/06/06 06:17:38;;;;;;;3.00;2.38;;;;;;;-145.69;100.00;52097.84;5072143;28;20546;-79
2023/06/06 06:20:08;;;;;;;2.85;2.10;;;;;;;-145.69;100.00;52121.59;5071670;28;20222;-79
2023/06/06 06:22:35;;;;;;;2.45;2.05;;;;;;;-145.69;100.00;52082.00;5071364;28;20203;-79
2023/06/06 06:25:03;;;;;;;3.67;2.30;;;;;;;-145.69;100.00;52087.94;5071934;28;20227;-79
2023/06/06 06:27:30;;;;;;;2.83;2.10;;;;;;;-145.69;100.00;52099.81;5075784;28;20233;-79
2023/06/06 06:29:59;;;;;;;2.95;2.20;;;;;;;-145.69;100.00;52123.56;5074947;28;20194;-80
2023/06/06 06:32:25;;;;;;;2.60;2.13;;;;;;;-145.69;100.00;52087.94;5066942;28;20195;-79
2023/06/06 06:34:52;;;;;;;3.13;2.30;;;;;;;-145.69;100.00;52097.84;5075513;28;20746;-79
2023/06/06 06:37:18;;;;;;;2.55;2.08;;;;;;;-145.69;100.00;52085.94;5075313;28;20245;-79
2023/06/06 06:39:45;;;;;;;5.25;2.30;;;;;;;-145.69;100.00;52068.13;5075364;28;20206;-79
2023/06/06 06:42:12;;;;;;;2.95;2.17;;;;;;;-145.69;100.00;52095.84;5074981;28;20248;-79
2023/06/06 06:44:38;;;;;;;4.53;2.50;;;;;;;-145.69;100.00;52080.00;5075489;28;20199;-79
2023/06/06 06:47:07;;;;;;;3.28;2.33;;;;;;;-145.69;100.00;52085.94;5074990;28;20234;-79
2023/06/06 06:49:33;;;;;;;4.20;2.30;;;;;;;-145.69;100.00;52068.13;5074346;28;20276;-79
2023/06/06 06:52:00;;;;;;;4.38;2.45;;;;;;;-145.69;100.00;52107.72;5074899;28;20198;-78
2023/06/06 06:54:27;;;;;;;3.80;2.50;;;;;;;-145.69;100.00;52080.00;5074728;28;20256;-79
2023/06/06 06:56:54;;;;;;;5.72;3.20;;;;;;;-145.69;100.00;52087.94;5075258;28;20521;-79
2023/06/06 06:59:21;;;;;;;5.35;2.72;;;;;;;-145.69;100.00;52080.00;5075209;28;20198;-79
2023/06/06 07:01:49;;;;;;;4.13;2.50;;;;;;;-145.69;100.00;52076.03;5074698;28;20230;-79
2023/06/06 07:04:17;;;;;;;3.15;2.45;;;;;;;-145.69;100.00;52078.03;5074755;28;20294;-78
2023/06/06 07:06:43;;;;;;;5.13;3.60;;;;;;;-145.69;100.00;52095.84;5074516;28;20529;-77
2023/06/06 07:09:11;;;;;;;7.88;3.60;;;;;;;-145.69;100.00;52072.09;5075060;28;20632;-78
2023/06/06 07:11:37;;;;;;;6.80;3.65;;;;;;;-145.69;100.00;52085.94;5074438;28;20531;-78
2023/06/06 07:14:03;;;;;;;10.38;3.30;;;;;;;-145.69;100.00;52076.03;5074741;28;20199;-79
2023/06/06 07:16:31;;;;;;;5.72;3.38;;;;;;;-145.69;98.55;52076.03;5074357;28;20195;-79
2023/06/06 07:18:57;;;;;;;5.68;3.35;;;;;;;-145.69;98.36;52093.88;5074694;28;20203;-78
2023/06/06 07:21:25;;;;;;;5.10;3.35;;;;;;;-145.69;95.62;52076.03;5074583;28;20199;-78
2023/06/06 07:23:52;;;;;;;5.63;2.95;;;;;;;-145.69;96.99;52080.00;5074207;28;20209;-80
2023/06/06 07:26:20;;;;;;;4.15;2.65;;;;;;;-145.69;96.13;52052.28;5074010;28;20244;-80
2023/06/06 07:28:47;;;;;;;3.10;2.10;;;;;;;-145.69;61.46;52074.06;5074270;28;20227;-79
2023/06/06 07:31:14;;;;;;;5.50;2.60;;;;;;;-145.69;70.41;52048.31;5074711;28;20298;-79
2023/06/06 07:33:41;;;;;;;4.95;2.30;;;;;;;-145.69;51.03;52046.34;5074150;28;20194;-79
2023/06/06 07:36:08;;;;;;;3.95;2.13;;;;;;;-145.69;54.94;52040.41;5073555;28;20714;-79
2023/06/06 07:38:36;;;;;;;5.20;2.38;;;;;;;-145.69;49.74;52026.53;5074104;28;20221;-79
2023/06/06 07:41:02;;;;;;;3.58;2.15;;;;;;;-145.69;52.20;52068.13;5073884;28;20596;-79
2023/06/06 07:43:29;;;;;;;4.30;2.33;;;;;;;-145.69;49.20;52018.63;5074747;28;20368;-80
2023/06/06 07:45:55;;;;;;;3.90;1.88;;;;;;;-145.69;47.11;52046.34;5074440;28;20201;-78
2023/06/06 07:48:22;;;;;;;3.85;2.20;;;;;;;-145.69;48.44;52052.28;5074871;28;20729;-78
2023/06/06 07:50:48;;;;;;;6.45;2.38;;;;;;;-145.69;50.35;52038.44;5074013;28;20256;-81
2023/06/06 07:53:15;;;;;;;3.53;2.17;;;;;;;-145.69;47.29;52032.47;5070464;28;20202;-79
2023/06/06 07:55:43;;;;;;;3.25;2.22;;;;;;;-145.69;48.87;51988.91;5073658;28;20588;-78
2023/06/06 07:58:11;;;;;;;6.85;2.30;;;;;;;-145.69;47.91;52008.72;5073978;28;20202;-78
2023/06/06 08:00:37;;;;;;;5.32;2.22;;;;;;;-145.69;44.74;52032.47;5073720;28;20209;-80
2023/06/06 08:03:04;;;;;;;4.38;2.47;;;;;;;-145.69;45.97;52044.38;5073476;28;20225;-77
2023/06/06 08:05:34;;;;;;;4.03;2.47;;;;;;;-145.69;49.30;52012.69;5073738;28;20623;-78
2023/06/06 08:08:00;;;;;;;10.63;2.47;;;;;;;-145.69;49.69;52038.44;5073137;28;20237;-79
2023/06/06 08:10:27;;;;;;;2.35;2.00;;;;;;;-145.69;47.16;52004.75;5072942;28;20195;-79
2023/06/06 08:12:55;;;;;;;4.82;1.92;;;;;;;-145.69;44.16;52012.69;5055765;28;20217;-82
2023/06/06 08:15:22;;;;;;;2.95;2.05;;;;;;;-145.69;45.90;52020.59;5073553;28;20276;-82
2023/06/06 08:17:48;;;;;;;3.72;2.20;;;;;;;-145.69;45.20;52000.81;5073758;28;20615;-81
2023/06/06 08:20:15;;;;;;;4.00;2.35;;;;;;;-145.69;48.44;51979.03;5073166;28;20664;-84
2023/06/06 08:22:49;;;;;;;4.35;2.25;;;;;;;-145.69;45.27;51988.91;5074733;28;20198;-85
2023/06/06 08:25:16;;;;;;;3.97;2.50;;;;;;;-145.69;44.96;52026.53;5074213;28;20205;-83
2023/06/06 08:27:42;;;;;;;3.38;2.10;;;;;;;-145.69;45.75;51986.94;5070614;28;20207;-80
2023/06/06 08:30:12;;;;;;;2.65;2.08;;;;;;;-145.69;43.51;52002.78;5064989;28;20227;-81
2023/06/06 08:32:38;;;;;;;3.17;2.03;;;;;;;-145.69;45.44;52010.69;5071452;28;20198;-80
2023/06/06 08:35:05;;;;;;;8.25;2.50;;;;;;;-145.69;44.09;51981.00;5073561;28;20202;-81
2023/06/06 08:37:32;;;;;;;3.97;2.08;;;;;;;-145.69;42.13;52000.81;5073680;28;20203;-81
2023/06/06 08:39:58;;;;;;;3.78;1.90;;;;;;;-145.69;43.55;51992.88;5073764;28;20206;-83
2023/06/06 08:42:27;;;;;;;4.25;2.00;;;;;;;-145.69;44.27;51975.06;5073136;28;20604;-82
2023/06/06 08:44:55;;;;;;;5.32;2.20;;;;;;;-145.69;45.59;52002.78;5073668;28;20592;-76
2023/06/06 08:47:26;;;;;;;4.90;1.98;;;;;;;-145.69;43.29;52016.66;5072760;28;20242;-81
2023/06/06 08:49:53;;;;;;;4.50;2.50;;;;;;;-145.69;43.23;51973.06;5074160;28;20296;-80
2023/06/06 08:52:21;;;;;;;3.72;2.47;;;;;;;-145.69;42.74;52012.69;5073034;28;20252;-82
2023/06/06 08:54:49;;;;;;;5.18;2.33;;;;;;;-145.69;43.84;51979.03;5072914;28;20206;-80
2023/06/06 08:57:19;;;;;;;3.78;2.22;;;;;;;-145.69;42.10;51949.31;5073099;28;20209;-80
2023/06/06 08:59:46;;;;;;;2.63;2.20;;;;;;;-145.69;40.95;51982.97;5072931;28;20195;-79
2023/06/06 09:02:12;;;;;;;5.55;2.47;;;;;;;-145.69;41.52;51967.13;5073835;28;20256;-83
2023/06/06 09:04:42;;;;;;;4.82;2.20;;;;;;;-145.69;42.34;52000.81;5073147;28;20274;-84
2023/06/06 09:07:11;;;;;;;5.18;2.30;;;;;;;-145.69;40.62;51988.91;5073007;28;20191;-81
2023/06/06 09:09:38;;;;;;;5.05;2.30;;;;;;;-145.69;41.36;51981.00;5072841;28;20226;-83
2023/06/06 09:12:07;;;;;;;6.25;2.22;;;;;;;-145.69;40.72;51971.09;5073432;28;20331;-87
2023/06/06 09:14:33;;;;;;;6.97;2.40;;;;;;;-145.69;40.01;51994.88;5073323;28;20245;-85
2023/06/06 09:17:00;;;;;;;5.43;2.13;;;;;;;-145.69;41.76;51961.19;5073084;28;20256;-85
2023/06/06 09:19:27;;;;;;;3.92;2.40;;;;;;;-145.69;41.08;51957.25;5073001;28;20260;-79
2023/06/06 09:21:58;;;;;;;4.43;2.22;;;;;;;-145.69;41.10;51969.13;5072971;28;20241;-84
2023/06/06 09:24:25;;;;;;;3.45;2.45;;;;;;;-145.69;41.54;51981.00;5072912;28;20242;-78
2023/06/06 09:26:51;;;;;;;5.40;2.33;;;;;;;-145.69;41.77;51959.22;5072903;28;20198;-81
2023/06/06 09:29:18;;;;;;;4.38;2.03;;;;;;;-145.69;42.07;51941.41;5072659;28;20222;-80
2023/06/06 09:31:44;;;;;;;11.13;2.50;;;;;;;-145.69;43.29;51967.13;5072235;28;20561;-84
2023/06/06 09:34:11;;;;;;;3.30;2.15;;;;;;;-145.69;44.45;51911.69;5072622;28;20592;-81
2023/06/06 09:36:41;;;;;;;4.85;2.33;;;;;;;-145.69;41.97;51941.41;5072115;28;20198;-81
2023/06/06 09:39:11;;;;;;;5.55;2.42;;;;;;;-145.69;40.39;51935.47;5071042;28;20187;-82
2023/06/06 09:41:42;;;;;;;5.75;2.03;;;;;;;-145.69;41.43;51961.19;5072630;28;20289;-80
2023/06/06 09:44:18;;;;;;;5.78;2.55;;;;;;;-145.69;45.77;51941.41;5072537;28;20217;-80
2023/06/06 09:46:45;;;;;;;7.90;2.78;;;;;;;-145.69;46.97;51941.41;5072128;28;20281;-79
2023/06/06 09:49:12;;;;;;;3.10;2.20;;;;;;;-145.69;41.50;51971.09;5072134;28;20667;-80
2023/06/06 09:51:41;;;;;;;4.30;2.60;;;;;;;-145.69;40.21;51931.50;5072772;28;20268;-80
2023/06/06 09:54:09;;;;;;;6.57;2.63;;;;;;;-145.69;42.63;51969.13;5072737;28;20206;-80
2023/06/06 09:56:39;;;;;;;5.55;2.92;;;;;;;-145.69;42.23;51941.41;5072667;28;20199;-79
2023/06/06 09:59:07;;;;;;;5.82;2.38;;;;;;;-145.69;51.91;51937.44;5072431;28;20611;-83
2023/06/06 10:01:36;;;;;;;6.75;2.67;;;;;;;-145.69;45.62;51998.81;5069033;28;20282;-79
2023/06/06 10:04:04;;;;;;;3.28;2.22;;;;;;;-145.69;48.01;51951.28;5056194;28;20286;-80
2023/06/06 10:06:33;;;;;;;5.05;2.40;;;;;;;-145.69;48.63;51969.13;5059493;28;20282;-79
2023/06/06 10:09:00;;;;;;;4.93;2.38;;;;;;;-145.69;46.57;51941.41;5075647;28;20309;-82
2023/06/06 10:11:28;;;;;;;4.78;2.60;;;;;;;-145.69;47.55;51955.25;5075859;28;20202;-81
2023/06/06 10:13:56;;;;;;;8.25;2.40;;;;;;;-145.69;50.86;51949.31;5075451;28;20434;-82
2023/06/06 10:16:24;;;;;;;6.90;2.53;;;;;;;-145.69;50.01;51992.88;5076197;28;20207;-80
2023/06/06 10:18:50;;;;;;;4.43;2.25;;;;;;;-145.69;52.41;51981.00;5077064;28;20558;-84
2023/06/06 10:21:17;;;;;;;4.28;2.60;;;;;;;-145.69;49.70;51981.00;5077275;28;20581;-85
2023/06/06 10:23:44;;;;;;;5.00;2.60;;;;;;;-145.69;51.01;51998.81;5076416;28;20456;-83
2023/06/06 10:26:18;;;;;;;6.13;2.90;;;;;;;-145.69;51.26;51959.22;5075746;28;20199;-79
2023/06/06 10:28:53;;;;;;;7.03;2.55;;;;;;;-145.69;51.58;51979.03;5076445;28;20286;-82
2023/06/06 10:31:30;;;;;;;6.85;2.60;;;;;;;-145.69;48.26;51973.06;5076878;28;20194;-83
2023/06/06 10:34:03;;;;;;;3.33;2.55;;;;;;;-145.69;49.10;51969.13;5076191;28;20202;-83
2023/06/06 10:36:40;;;;;;;3.85;2.42;;;;;;;-145.69;46.75;51971.09;5075121;28;20198;-80
2023/06/06 10:39:17;;;;;;;4.70;2.90;;;;;;;-145.69;46.99;51969.13;5074975;28;20203;-81
2023/06/06 10:41:50;;;;;;;7.03;2.80;;;;;;;-145.69;44.48;51973.06;5075458;28;20202;-82
2023/06/06 10:44:20;;;;;;;4.75;2.65;;;;;;;-145.69;44.25;51981.00;5075693;28;20289;-81
2023/06/06 10:46:50;;;;;;;4.60;2.60;;;;;;;-145.69;42.55;51973.06;5075418;28;20203;-82
2023/06/06 10:49:17;;;;;;;5.88;2.55;;;;;;;-145.69;44.75;51979.03;5075571;28;20257;-82
2023/06/06 10:51:43;;;;;;;5.85;2.55;;;;;;;-145.69;42.07;51947.34;5075377;28;20248;-80
2023/06/06 10:54:17;;;;;;;5.68;2.63;;;;;;;-145.69;42.35;51973.06;5075387;28;20191;-80
2023/06/06 10:56:45;;;;;;;4.68;2.63;;;;;;;-145.69;39.46;51965.16;5075142;28;20646;-80
2023/06/06 10:59:13;;;;;;;5.97;2.83;;;;;;;-145.69;42.10;51969.13;5075178;28;20241;-84
2023/06/06 11:01:41;;;;;;;2.88;2.28;;;;;;;-145.69;41.13;51957.25;5075028;28;20264;-80
2023/06/06 11:04:19;;;;;;;6.50;2.75;;;;;;;-145.69;41.36;51933.47;5074434;28;20195;-81
2023/06/06 11:06:46;;;;;;;6.72;2.80;;;;;;;-145.69;41.64;51961.19;5074899;28;20286;-81
2023/06/06 11:09:18;;;;;;;4.97;2.65;;;;;;;-145.69;39.41;51951.28;5074880;28;20231;-81
2023/06/06 11:11:45;;;;;;;4.68;2.70;;;;;;;-145.69;40.84;51949.31;5074353;28;20286;-81
2023/06/06 11:14:11;;;;;;;6.63;2.97;;;;;;;-145.69;38.01;51979.03;5074755;28;20252;-82